Time;durP1;ratioP1;P1;durP2;ratioP2;P2;SDS_P1;SDS_P2;PMS_P1;PMS_P2;Temp;Humidity;BMP_temperature;BMP_pressure;BME280_temperature;BME280_humidity;BME280_pressure;Samples;Min_cycle;Max_cycle;Signal;HPM_P1;HPM_P2
2023/06/02 00:01:35;;;;;;;;;;;;;;;;;;5108774;28;19962;-84
2023/06/02 00:04:04;;;;;;;;;;;;;;;;;;5105384;28;19927;-83
2023/06/02 00:06:32;;;;;;;;;;;;;;;;;;5130756;27;19928;-83
2023/06/02 00:08:58;;;;;;;;;;;;;;;;;;5092510;28;19919;-84
2023/06/02 00:11:25;;;;;;;;;;;;;;;;;;5107081;28;20498;-84
2023/06/02 00:13:51;;;;;;;;;;;;;;;;;;5101145;28;20293;-84
2023/06/02 00:16:17;;;;;;;;;;;;;;;;;;5098978;28;20050;-83
2023/06/02 00:18:43;;;;;;;;;;;;;;;;;;5107749;28;20369;-83
2023/06/02 00:21:09;;;;;;;;;;;;;;;;;;5098495;28;19931;-84
2023/06/02 00:23:35;;;;;;;;;;;;;;;;;;5092133;28;20012;-84
2023/06/02 00:26:01;;;;;;;;;;;;;;;;;;5108428;28;20387;-85
2023/06/02 00:28:27;;;;;;;;;;;;;;;;;;5103174;28;19920;-85
2023/06/02 00:30:53;;;;;;;;;;;;;;;;;;5119832;28;19954;-84
2023/06/02 00:33:19;;;;;;;;;;;;;;;;;;5088818;28;19919;-84
2023/06/02 00:35:45;;;;;;;;;;;;;;;;;;5088841;28;20014;-84
2023/06/02 00:38:11;;;;;;;;;;;;;;;;;;5105870;28;19923;-85
2023/06/02 00:40:37;;;;;;;;;;;;;;;;;;5085373;28;19977;-85
2023/06/02 00:43:03;;;;;;;;;;;;;;;;;;5127845;27;19923;-85
2023/06/02 00:45:29;;;;;;;;;;;;;;;;;;5105807;28;20043;-84
2023/06/02 00:47:55;;;;;;;;;;;;;;;;;;5108949;28;19920;-84
2023/06/02 00:50:21;;;;;;;;;;;;;;;;;;5101357;28;19950;-85
2023/06/02 00:52:47;;;;;;;;;;;;;;;;;;5096513;28;19931;-84
2023/06/02 00:55:13;;;;;;;;;;;;;;;;;;5102582;28;19931;-85
2023/06/02 00:57:40;;;;;;;;;;;;;;;;;;5095099;28;19930;-84
2023/06/02 01:00:06;;;;;;;;;;;;;;;;;;5139413;27;20380;-84
2023/06/02 01:02:32;;;;;;;;;;;;;;;;;;5111246;28;19965;-84
2023/06/02 01:05:00;;;;;;;;;;;;;;;;;;5101756;28;19964;-84
2023/06/02 01:07:27;;;;;;;;;;;;;;;;;;5144403;27;19920;-85
2023/06/02 01:09:54;;;;;;;;;;;;;;;;;;5113653;28;19931;-84
2023/06/02 01:12:20;;;;;;;;;;;;;;;;;;5112333;28;19920;-84
2023/06/02 01:14:45;;;;;;;;;;;;;;;;;;5090245;28;19927;-85
2023/06/02 01:17:11;;;;;;;;;;;;;;;;;;5100249;28;19920;-85
2023/06/02 01:19:38;;;;;;;;;;;;;;;;;;5110051;28;19926;-84
2023/06/02 01:22:04;;;;;;;;;;;;;;;;;;5103707;28;20433;-84
2023/06/02 01:24:33;;;;;;;;;;;;;;;;;;5093112;28;20412;-84
2023/06/02 01:26:59;;;;;;;;;;;;;;;;;;5127906;27;19920;-84
2023/06/02 01:29:25;;;;;;;;;;;;;;;;;;5092314;28;20353;-84
2023/06/02 01:31:51;;;;;;;;;;;;;;;;;;5127798;27;19927;-84
2023/06/02 01:34:19;;;;;;;;;;;;;;;;;;5099450;28;19920;-85
2023/06/02 01:36:45;;;;;;;;;;;;;;;;;;5127670;27;20337;-84
2023/06/02 01:39:11;;;;;;;;;;;;;;;;;;5095020;28;20006;-84
2023/06/02 01:41:37;;;;;;;;;;;;;;;;;;5112891;28;20405;-84
2023/06/02 01:44:03;;;;;;;;;;;;;;;;;;5096257;28;20533;-84
2023/06/02 01:46:29;;;;;;;;;;;;;;;;;;5109986;28;20363;-85
2023/06/02 01:48:55;;;;;;;;;;;;;;;;;;5111717;28;20587;-84
2023/06/02 01:51:21;;;;;;;;;;;;;;;;;;5108888;28;19942;-85
2023/06/02 01:53:46;;;;;;;;;;;;;;;;;;5105006;28;19919;-84
2023/06/02 01:56:12;;;;;;;;;;;;;;;;;;5101746;28;19959;-84
2023/06/02 01:58:38;;;;;;;;;;;;;;;;;;5108759;28;19972;-84
2023/06/02 02:01:05;;;;;;;;;;;;;;;;;;5100280;28;20022;-84
2023/06/02 02:03:32;;;;;;;;;;;;;;;;;;5091417;28;20393;-85
2023/06/02 02:05:58;;;;;;;;;;;;;;;;;;5093356;28;19920;-84
2023/06/02 02:08:24;;;;;;;;;;;;;;;;;;5108500;28;20318;-84
2023/06/02 02:10:50;;;;;;;;;;;;;;;;;;5102262;28;20010;-84
2023/06/02 02:13:16;;;;;;;;;;;;;;;;;;5094273;28;20015;-84
2023/06/02 02:15:42;;;;;;;;;;;;;;;;;;5111954;28;20373;-84
2023/06/02 02:18:09;;;;;;;;;;;;;;;;;;5093013;28;19923;-84
2023/06/02 02:20:35;;;;;;;;;;;;;;;;;;5100205;28;19988;-84
2023/06/02 02:23:01;;;;;;;;;;;;;;;;;;5102203;28;19924;-84
2023/06/02 02:25:27;;;;;;;;;;;;;;;;;;5107638;28;19930;-84
2023/06/02 02:27:53;;;;;;;;;;;;;;;;;;5111289;28;19935;-84
2023/06/02 02:30:19;;;;;;;;;;;;;;;;;;5091960;28;19927;-84
2023/06/02 02:32:46;;;;;;;;;;;;;;;;;;5103191;28;20274;-84
2023/06/02 02:35:12;;;;;;;;;;;;;;;;;;5111852;28;20335;-83
2023/06/02 02:37:38;;;;;;;;;;;;;;;;;;5109381;28;20030;-84
2023/06/02 02:40:05;;;;;;;;;;;;;;;;;;5092466;28;20445;-84
2023/06/02 02:42:33;;;;;;;;;;;;;;;;;;5091526;28;20281;-84
2023/06/02 02:45:00;;;;;;;;;;;;;;;;;;5091781;28;19920;-84
2023/06/02 02:47:26;;;;;;;;;;;;;;;;;;5105080;28;19923;-84
2023/06/02 02:49:52;;;;;;;;;;;;;;;;;;5090605;28;19920;-84
2023/06/02 02:52:18;;;;;;;;;;;;;;;;;;5109096;28;19927;-84
2023/06/02 02:54:44;;;;;;;;;;;;;;;;;;5110746;28;19923;-84
2023/06/02 02:57:10;;;;;;;;;;;;;;;;;;5112241;28;20014;-84
2023/06/02 02:59:36;;;;;;;;;;;;;;;;;;5094355;28;20014;-84
2023/06/02 03:02:02;;;;;;;;;;;;;;;;;;5111443;28;20022;-85
2023/06/02 03:04:28;;;;;;;;;;;;;;;;;;5108056;28;19920;-84
2023/06/02 03:06:54;;;;;;;;;;;;;;;;;;5091819;28;20006;-84
2023/06/02 03:09:20;;;;;;;;;;;;;;;;;;5081558;28;19972;-84
2023/06/02 03:11:46;;;;;;;;;;;;;;;;;;5091062;28;20015;-84
2023/06/02 03:14:12;;;;;;;;;;;;;;;;;;5090773;28;19968;-84
2023/06/02 03:16:44;;;;;;;;;;;;;;;;;;5106177;28;19970;-84
2023/06/02 03:19:10;;;;;;;;;;;;;;;;;;5108365;28;20015;-84
2023/06/02 03:21:41;;;;;;;;;;;;;;;;;;5093015;28;20411;-85
2023/06/02 03:24:07;;;;;;;;;;;;;;;;;;5125726;27;19924;-84
2023/06/02 03:26:33;;;;;;;;;;;;;;;;;;5090960;28;20076;-85
2023/06/02 03:28:59;;;;;;;;;;;;;;;;;;5097531;28;19919;-84
2023/06/02 03:31:25;;;;;;;;;;;;;;;;;;5111446;28;20000;-84
2023/06/02 03:33:51;;;;;;;;;;;;;;;;;;5101241;28;19962;-84
2023/06/02 03:36:19;;;;;;;;;;;;;;;;;;5090911;28;20364;-84
2023/06/02 03:38:45;;;;;;;;;;;;;;;;;;5140865;27;19920;-84
2023/06/02 03:41:11;;;;;;;;;;;;;;;;;;5111122;28;19927;-84
2023/06/02 03:43:37;;;;;;;;;;;;;;;;;;5108026;28;19920;-84
2023/06/02 03:46:03;;;;;;;;;;;;;;;;;;5110900;28;19982;-84
2023/06/02 03:48:29;;;;;;;;;;;;;;;;;;5092435;28;19924;-84
2023/06/02 03:50:55;;;;;;;;;;;;;;;;;;5106109;28;19946;-84
2023/06/02 03:53:21;;;;;;;;;;;;;;;;;;5110904;28;20014;-84
2023/06/02 03:55:47;;;;;;;;;;;;;;;;;;5106644;28;19923;-84
2023/06/02 03:58:13;;;;;;;;;;;;;;;;;;5110575;28;19924;-84
2023/06/02 04:00:38;;;;;;;;;;;;;;;;;;5092267;28;19923;-84
2023/06/02 04:03:04;;;;;;;;;;;;;;;;;;5109080;28;20380;-84
2023/06/02 04:05:30;;;;;;;;;;;;;;;;;;5089304;28;20396;-84
2023/06/02 04:07:56;;;;;;;;;;;;;;;;;;5090744;28;19988;-83
2023/06/02 04:10:22;;;;;;;;;;;;;;;;;;5102772;28;19923;-84
2023/06/02 04:12:48;;;;;;;;;;;;;;;;;;5093022;28;20752;-84
2023/06/02 04:15:14;;;;;;;;;;;;;;;;;;5104364;28;19973;-84
2023/06/02 04:17:40;;;;;;;;;;;;;;;;;;5092402;28;19931;-84
2023/06/02 04:20:07;;;;;;;;;;;;;;;;;;5092918;28;19931;-84
2023/06/02 04:22:33;;;;;;;;;;;;;;;;;;5096057;28;20011;-85
2023/06/02 04:24:59;;;;;;;;;;;;;;;;;;5090439;28;20057;-84
2023/06/02 04:27:25;;;;;;;;;;;;;;;;;;5090404;28;19924;-84
2023/06/02 04:29:51;;;;;;;;;;;;;;;;;;5089402;28;20032;-84
2023/06/02 04:32:17;;;;;;;;;;;;;;;;;;5092065;28;19966;-85
2023/06/02 04:34:42;;;;;;;;;;;;;;;;;;5091671;28;20277;-84
2023/06/02 04:37:10;;;;;;;;;;;;;;;;;;5099457;28;20035;-84
2023/06/02 04:39:36;;;;;;;;;;;;;;;;;;5104637;28;19927;-84
2023/06/02 04:42:03;;;;;;;;;;;;;;;;;;5090354;28;19964;-84
2023/06/02 04:44:29;;;;;;;;;;;;;;;;;;5072962;28;20030;-85
2023/06/02 04:46:55;;;;;;;;;;;;;;;;;;5089893;28;20353;-84
2023/06/02 04:49:21;;;;;;;;;;;;;;;;;;5106691;28;19924;-84
2023/06/02 04:51:47;;;;;;;;;;;;;;;;;;5110180;28;19923;-84
2023/06/02 04:54:15;;;;;;;;;;;;;;;;;;5099133;28;20141;-84
2023/06/02 04:56:41;;;;;;;;;;;;;;;;;;5089571;28;19981;-84
2023/06/02 04:59:07;;;;;;;;;;;;;;;;;;5089494;28;19920;-84
2023/06/02 05:01:33;;;;;;;;;;;;;;;;;;5094361;28;19924;-84
2023/06/02 05:03:59;;;;;;;;;;;;;;;;;;5083651;28;19973;-84
2023/06/02 05:06:25;;;;;;;;;;;;;;;;;;5106818;28;19969;-84
2023/06/02 05:08:51;;;;;;;;;;;;;;;;;;5106214;28;19927;-84
2023/06/02 05:11:17;;;;;;;;;;;;;;;;;;5089923;28;19956;-84
2023/06/02 05:13:44;;;;;;;;;;;;;;;;;;5072379;28;20228;-84
2023/06/02 05:16:09;;;;;;;;;;;;;;;;;;5106118;28;20051;-84
2023/06/02 05:18:36;;;;;;;;;;;;;;;;;;5088267;28;20395;-84
2023/06/02 05:21:02;;;;;;;;;;;;;;;;;;5106208;28;20028;-84
2023/06/02 05:23:28;;;;;;;;;;;;;;;;;;5108298;28;19970;-84
2023/06/02 05:25:54;;;;;;;;;;;;;;;;;;5096169;28;19935;-84
2023/06/02 05:28:20;;;;;;;;;;;;;;;;;;5093442;28;19924;-84
2023/06/02 05:30:46;;;;;;;;;;;;;;;;;;5092635;28;19924;-84
2023/06/02 05:33:12;;;;;;;;;;;;;;;;;;5097288;28;19924;-85
2023/06/02 05:35:38;;;;;;;;;;;;;;;;;;5112280;28;19977;-85
2023/06/02 05:38:04;;;;;;;;;;;;;;;;;;5113988;28;19927;-84
2023/06/02 05:40:30;;;;;;;;;;;;;;;;;;5096773;28;20011;-84
2023/06/02 05:42:56;;;;;;;;;;;;;;;;;;5109012;28;20030;-84
2023/06/02 05:45:22;;;;;;;;;;;;;;;;;;5096483;28;19920;-85
2023/06/02 05:47:48;;;;;;;;;;;;;;;;;;5093024;28;20341;-84
2023/06/02 05:50:14;;;;;;;;;;;;;;;;;;5091648;28;20258;-85
2023/06/02 05:52:41;;;;;;;;;;;;;;;;;;5092236;28;19919;-84
2023/06/02 05:55:07;;;;;;;;;;;;;;;;;;5126672;27;19969;-85
2023/06/02 05:57:33;;;;;;;;;;;;;;;;;;5092316;28;19971;-84
2023/06/02 05:59:59;;;;;;;;;;;;;;;;;;5092134;28;19931;-85
2023/06/02 06:02:24;;;;;;;;;;;;;;;;;;5092283;28;19927;-85
2023/06/02 06:04:50;;;;;;;;;;;;;;;;;;5091622;28;20405;-84
2023/06/02 06:07:16;;;;;;;;;;;;;;;;;;5095490;28;20506;-84
2023/06/02 06:09:42;;;;;;;;;;;;;;;;;;5112141;28;20011;-84
2023/06/02 06:12:08;;;;;;;;;;;;;;;;;;5101004;28;19920;-84
2023/06/02 06:14:34;;;;;;;;;;;;;;;;;;5092055;28;19920;-85
2023/06/02 06:17:01;;;;;;;;;;;;;;;;;;5092603;28;20513;-84
2023/06/02 06:19:26;;;;;;;;;;;;;;;;;;5110477;28;19926;-84
2023/06/02 06:21:52;;;;;;;;;;;;;;;;;;5112268;28;19920;-85
2023/06/02 06:24:18;;;;;;;;;;;;;;;;;;5113013;28;19975;-85
2023/06/02 06:26:44;;;;;;;;;;;;;;;;;;5112243;28;20008;-82
2023/06/02 06:29:10;;;;;;;;;;;;;;;;;;5112337;28;19930;-82
2023/06/02 06:31:36;;;;;;;;;;;;;;;;;;5113151;28;19920;-83
2023/06/02 06:34:02;;;;;;;;;;;;;;;;;;5086298;28;19967;-84
2023/06/02 06:36:28;;;;;;;;;;;;;;;;;;5097766;28;20049;-84
2023/06/02 06:38:54;;;;;;;;;;;;;;;;;;5104115;28;19927;-85
2023/06/02 06:41:21;;;;;;;;;;;;;;;;;;5092857;28;19920;-83
2023/06/02 06:43:47;;;;;;;;;;;;;;;;;;5125354;27;20013;-83
2023/06/02 06:46:13;;;;;;;;;;;;;;;;;;5092369;28;19979;-88
2023/06/02 06:48:39;;;;;;;;;;;;;;;;;;5091808;28;19920;-78
2023/06/02 06:51:05;;;;;;;;;;;;;;;;;;5093033;28;19916;-81
2023/06/02 06:53:31;;;;;;;;;;;;;;;;;;5104754;28;20312;-80
2023/06/02 06:55:57;;;;;;;;;;;;;;;;;;5094742;28;19997;-85
2023/06/02 06:58:23;;;;;;;;;;;;;;;;;;5104828;28;20172;-83
2023/06/02 07:00:49;;;;;;;;;;;;;;;;;;5093066;28;19927;-83
2023/06/02 07:03:15;;;;;;;;;;;;;;;;;;5145074;27;19919;-88
2023/06/02 07:05:41;;;;;;;;;;;;;;;;;;5111621;28;19927;-84
2023/06/02 07:08:07;;;;;;;;;;;;;;;;;;5112634;28;19915;-83
2023/06/02 07:10:33;;;;;;;;;;;;;;;;;;5112212;28;19970;-83
2023/06/02 07:12:59;;;;;;;;;;;;;;;;;;5097096;28;19923;-82
2023/06/02 07:15:25;;;;;;;;;;;;;;;;;;5084213;28;19927;-84
2023/06/02 07:17:51;;;;;;;;;;;;;;;;;;5104729;28;19998;-84
2023/06/02 07:20:17;;;;;;;;;;;;;;;;;;5097693;28;19931;-84
2023/06/02 07:22:43;;;;;;;;;;;;;;;;;;5090550;28;19928;-84
2023/06/02 07:25:09;;;;;;;;;;;;;;;;;;5090069;28;20377;-79
2023/06/02 07:27:35;;;;;;;;;;;;;;;;;;5103572;28;20715;-85
2023/06/02 07:30:02;;;;;;;;;;;;;;;;;;5090131;28;20004;-85
2023/06/02 07:32:28;;;;;;;;;;;;;;;;;;5124756;27;20392;-85
2023/06/02 07:34:54;;;;;;;;;;;;;;;;;;5108075;28;19970;-83
2023/06/02 07:37:19;;;;;;;;;;;14.50;99.90;;;;;;5099813;28;19931;-87
2023/06/02 07:39:45;;;;;;;;;;;14.60;99.90;;;;;;5092149;28;20391;-86
2023/06/02 07:42:11;;;;;;;;;;;14.70;99.90;;;;;;5090739;28;20053;-81
2023/06/02 07:44:36;;;;;;;;;;;14.70;99.90;;;;;;5107558;28;19977;-84
2023/06/02 07:47:03;;;;;;;;;;;14.80;99.90;;;;;;5090517;28;19920;-86
2023/06/02 07:49:28;;;;;;;;;;;14.80;99.90;;;;;;5088613;28;19928;-85
2023/06/02 07:51:54;;;;;;;;;;;14.80;99.90;;;;;;5132656;27;19933;-85
2023/06/02 07:54:20;;;;;;;;;;;14.90;99.90;;;;;;5111246;27;20393;-89
2023/06/02 07:56:46;;;;;;;;;;;14.90;99.90;;;;;;5108634;27;19923;-90
2023/06/02 07:59:12;;;;;;;;;;;15.00;99.90;;;;;;5098390;28;19919;-90
2023/06/02 08:01:38;;;;;;;;;;;15.10;99.90;;;;;;5138734;27;19941;-88
2023/06/02 08:04:03;;;;;;;;;;;15.30;99.90;;;;;;5108250;28;19923;-86
2023/06/02 08:06:29;;;;;;;;;;;15.30;99.90;;;;;;5090715;28;20019;-88
2023/06/02 08:08:55;;;;;;;;;;;;;;;;;;5072227;28;19920;-88
2023/06/02 08:11:22;;;;;;;;;;;;;;;;;;5090246;28;19931;-87
2023/06/02 08:13:48;;;;;;;;;;;;;;;;;;5123607;27;19919;-88
2023/06/02 08:16:14;;;;;;;;;;;;;;;;;;5095136;28;20052;-89
2023/06/02 08:18:40;;;;;;;;;;;;;;;;;;5101530;28;19919;-88
2023/06/02 08:21:06;;;;;;;;;;;;;;;;;;5105098;28;19966;-89
2023/06/02 08:23:32;;;;;;;;;;;;;;;;;;5106891;28;19943;-89
2023/06/02 08:25:58;;;;;;;;;;;;;;;;;;5089672;28;19927;-89
2023/06/02 08:28:25;;;;;;;;;;;;;;;;;;5102712;28;19920;-89
2023/06/02 08:30:51;;;;;;;;;;;;;;;;;;5123942;27;19924;-90
2023/06/02 08:33:18;;;;;;;;;;;;;;;;;;5088830;28;19920;-89
2023/06/02 08:35:46;;;;;;;;;;;;;;;;;;5089330;28;19927;-89
2023/06/02 08:38:17;;;;;;;;;;;;;;;;;;5090316;28;19963;-91
2023/06/02 08:40:43;;;;;;;;;;;;;;;;;;5089987;28;19928;-89
2023/06/02 08:43:09;;;;;;;;;;;;;;;;;;5106273;28;19924;-88
2023/06/02 08:45:35;;;;;;;;;;;;;;;;;;5106691;28;19923;-88
2023/06/02 08:48:01;;;;;;;;;;;;;;;;;;5098705;28;19945;-90
2023/06/02 08:50:27;;;;;;;;;;;;;;;;;;5095513;28;19919;-88
2023/06/02 08:52:53;;;;;;;;;;;;;;;;;;5118000;28;19924;-87
2023/06/02 08:55:20;;;;;;;;;;;;;;;;;;5109963;28;20010;-88
2023/06/02 08:57:46;;;;;;;;;;;;;;;;;;5093272;28;19923;-88
2023/06/02 09:00:12;;;;;;;;;;;;;;;;;;5104069;28;20276;-87
2023/06/02 09:02:38;;;;;;;;;;;;;;;;;;5106481;28;19923;-87
2023/06/02 09:05:05;;;;;;;;;;;;;;;;;;5092613;28;20065;-88
2023/06/02 09:07:31;;;;;;;;;;;;;;;;;;5091950;28;19920;-87
2023/06/02 09:09:57;;;;;;;;;;;;;;;;;;5097366;28;19920;-87
2023/06/02 09:12:24;;;;;;;;;;;;;;;;;;5112187;28;19924;-87
2023/06/02 09:14:49;;;;;;;;;;;;;;;;;;5098159;28;19928;-87
2023/06/02 09:17:15;;;;;;;;;;;;;;;;;;5093829;28;19946;-86
2023/06/02 09:19:41;;;;;;;;;;;;;;;;;;5107977;28;19926;-91
2023/06/02 09:22:07;;;;;;;;;;;;;;;;;;5112246;28;19919;-91
2023/06/02 09:24:33;;;;;;;;;;;;;;;;;;5095004;28;19924;-91
2023/06/02 09:27:02;;;;;;;;;;;;;;;;;;5096775;28;19927;-92
2023/06/02 09:29:28;;;;;;;;;;;;;;;;;;5097618;28;19969;-92
2023/06/02 09:31:54;;;;;;;;;;;;;;;;;;5114827;28;19951;-91
2023/06/02 09:34:20;;;;;;;;;;;;;;;;;;5112760;28;19919;-92
2023/06/02 09:36:46;;;;;;;;;;;;;;;;;;5115221;28;19920;-92
2023/06/02 09:39:12;;;;;;;;;;;;;;;;;;5114640;28;19927;-92
2023/06/02 09:41:38;;;;;;;;;;;;;;;;;;5114596;28;19919;-91
2023/06/02 09:44:05;;;;;;;;;;;;;;;;;;5112935;28;19920;-91
2023/06/02 09:46:31;;;;;;;;;;;;;;;;;;5098469;28;19919;-93
2023/06/02 09:48:59;;;;;;;;;;;;;;;;;;5135833;27;20253;-92
2023/06/02 09:51:25;;;;;;;;;;;;;;;;;;5111319;28;19919;-90
2023/06/02 09:53:51;;;;;;;;;;;;;;;;;;5147965;27;19919;-93
2023/06/02 09:56:17;;;;;;;;;;;;;;;;;;5113724;28;19920;-92
2023/06/02 09:58:43;;;;;;;;;;;;;;;;;;5114270;28;19946;-92
2023/06/02 10:01:09;;;;;;;;;;;;;;;;;;5113966;28;19920;-92
2023/06/02 10:03:36;;;;;;;;;;;;;;;;;;5113683;28;19920;-88
2023/06/02 10:06:02;;;;;;;;;;;;;;;;;;5094348;28;20357;-92
2023/06/02 10:08:28;;;;;;;;;;;;;;;;;;5106680;28;19930;-94
2023/06/02 10:10:54;;;;;;;;;;;;;;;;;;5114249;28;19923;-93
2023/06/02 10:13:20;;;;;;;;;;;;;;;;;;5092262;28;20406;-92
2023/06/02 10:15:46;;;;;;;;;;;;;;;;;;5099443;28;20547;-92
2023/06/02 10:18:12;;;;;;;;;;;;;;;;;;5112680;28;20034;-93
2023/06/02 10:20:38;;;;;;;;;;;;;;;;;;5113580;28;20432;-92
2023/06/02 10:23:03;;;;;;;;;;;;;;;;;;5114541;28;20328;-93
2023/06/02 10:25:31;;;;;;;;;;;;;;;;;;5114014;28;19923;-92
2023/06/02 10:27:57;;;;;;;;;;;;;;;;;;5097343;28;19924;-93
2023/06/02 10:30:24;;;;;;;;;;;;;;;;;;5113503;28;20018;-93
2023/06/02 10:32:50;;;;;;;;;;;;;;;;;;5109851;28;19923;-93
2023/06/02 10:35:16;;;;;;;;;;;;;;;;;;5091927;28;19927;-93
2023/06/02 10:37:43;;;;;;;;;;;;;;;;;;5100346;28;19919;-93
2023/06/02 10:40:10;;;;;;;;;;;;;;;;;;5113775;28;19923;-87
2023/06/02 10:42:36;;;;;;;;;;;;;;;;;;5113525;28;19924;-92
2023/06/02 10:45:02;;;;;;;;;;;;;;;;;;5113865;28;20006;-92
2023/06/02 10:47:29;;;;;;;;;;;;;;;;;;5112013;28;19923;-92
2023/06/02 10:49:55;;;;;;;;;;;;;;;;;;5112898;28;19965;-92
2023/06/02 10:52:21;;;;;;;;;;;;;;;;;;5102413;28;19920;-91
2023/06/02 10:54:47;;;;;;;;;;;;;;;;;;5094102;28;19969;-91
2023/06/02 10:57:13;;;;;;;;;;;;;;;;;;5111872;28;19920;-89
2023/06/02 10:59:39;;;;;;;;;;;;;;;;;;5113307;28;19920;-93
2023/06/02 11:02:05;;;;;;;;;;;;;;;;;;5113040;28;20291;-92
2023/06/02 11:04:34;;;;;;;;;;;;;;;;;;5090885;28;20342;-92
2023/06/02 11:07:00;;;;;;;;;;;;;;;;;;5103277;28;19958;-91
2023/06/02 11:09:26;;;;;;;;;;;;;;;;;;5099868;28;19920;-84
2023/06/02 11:11:53;;;;;;;;;;;;;;;;;;5108099;28;19920;-87
2023/06/02 11:14:19;;;;;;;;;;;;;;;;;;5109024;28;19983;-87
2023/06/02 11:16:45;;;;;;;;;;;;;;;;;;5094984;28;20324;-89
2023/06/02 11:19:11;;;;;;;;;;;;;;;;;;5102122;28;19924;-87
2023/06/02 11:21:37;;;;;;;;;;;;;;;;;;5092259;28;20021;-86
2023/06/02 11:24:03;;;;;;;;;;;;;;;;;;5097473;28;19924;-90
2023/06/02 11:26:29;;;;;;;;;;;;;;;;;;5090796;28;19927;-90
2023/06/02 11:28:56;;;;;;;;;;;;;;;;;;5090641;28;19920;-90
2023/06/02 11:31:22;;;;;;;;;;;;;;;;;;5124336;27;19927;-88
2023/06/02 11:33:48;;;;;;;;;;;;;;;;;;5107351;27;19924;-89
2023/06/02 11:36:14;;;;;;;;;;;;;;;;;;5107363;27;19930;-89
2023/06/02 11:38:40;;;;;;;;;;;;;;;;;;5087399;28;19920;-91
2023/06/02 11:41:06;;;;;;;;;;;;;;;;;;5094410;28;19964;-91
2023/06/02 11:43:32;;;;;;;;;;;;;;;;;;5091426;28;19924;-90
2023/06/02 11:45:58;;;;;;;;;;;;;;;;;;5082691;28;20010;-91
2023/06/02 11:48:25;;;;;;;;;;;;;;;;;;5110234;28;19924;-87
2023/06/02 11:50:51;;;;;;;;;;;;;;;;;;5093551;28;19996;-89
2023/06/02 11:53:17;;;;;;;;;;;;;;;;;;5111899;28;19974;-87
2023/06/02 11:55:43;;;;;;;;;;;;;;;;;;5091813;28;19928;-90
2023/06/02 11:58:09;;;;;;;;;;;;;;;;;;5111576;28;19959;-92
2023/06/02 12:00:35;;;;;;;;;;;;;;;;;;5105260;28;19924;-90
2023/06/02 12:03:01;;;;;;;;;;;;;;;;;;5111598;28;19929;-93
2023/06/02 12:05:30;;;;;;;;;;;;;;;;;;5110469;28;19923;-89
2023/06/02 12:07:56;;;;;;;;;;;;;;;;;;5096537;28;19931;-91
2023/06/02 12:10:22;;;;;;;;;;;;;;;;;;5105890;28;19939;-91
2023/06/02 12:12:48;;;;;;;;;;;;;;;;;;5111429;28;20022;-93
2023/06/02 12:15:14;;;;;;;;;;;27.20;62.70;;;;;;5109226;28;20022;-91
2023/06/02 12:17:41;;;;;;;;;;;26.60;63.80;;;;;;5109761;28;20402;-91
2023/06/02 12:20:07;;;;;;;;;;;25.90;63.80;;;;;;5096589;28;19920;-88
2023/06/02 12:22:32;;;;;;;;;;;25.40;64.20;;;;;;5107437;28;20259;-91
2023/06/02 12:25:09;;;;;;;;;;;25.60;63.90;;;;;;5091108;28;19923;-91
2023/06/02 12:27:35;;;;;;;;;;;29.40;58.20;;;;;;5078984;28;19931;-90
2023/06/02 12:30:01;;;;;;;;;;;;;;;;;;5106711;28;19924;-90
2023/06/02 12:32:27;;;;;;;;;;;;;;;;;;5092678;28;19926;-90
2023/06/02 12:34:53;;;;;;;;;;;;;;;;;;5109264;28;19920;-88
2023/06/02 12:37:19;;;;;;;;;;;;;;;;;;5105353;28;19943;-86
2023/06/02 12:39:45;;;;;;;;;;;;;;;;;;5106279;28;19927;-88
2023/06/02 12:42:14;;;;;;;;;;;;;;;;;;5099992;28;19959;-80
2023/06/02 12:44:40;;;;;;;;;;;;;;;;;;5123388;27;20448;-78
2023/06/02 12:47:08;;;;;;;;;;;;;;;;;;5099102;28;19998;-85
2023/06/02 12:49:34;;;;;;;;;;;;;;;;;;5107946;28;19972;-74
2023/06/02 12:52:01;;;;;;;;;;;;;;;;;;5111354;28;19927;-85
2023/06/02 12:54:27;;;;;;;;;;;;;;;;;;5094809;28;19923;-84
2023/06/02 12:56:53;;;;;;;;;;;;;;;;;;5108703;28;19972;-89
2023/06/02 12:59:19;;;;;;;;;;;;;;;;;;5089392;28;19919;-86
2023/06/02 13:01:45;;;;;;;;;;;;;;;;;;5088938;28;19920;-88
2023/06/02 13:04:11;;;;;;;;;;;;;;;;;;5087878;28;19970;-82
2023/06/02 13:06:37;;;;;;;;;;;;;;;;;;5072792;28;20313;-77
2023/06/02 13:09:03;;;;;;;;;;;;;;;;;;5110164;28;19920;-83
2023/06/02 13:11:29;;;;;;;;;;;;;;;;;;5109825;28;19920;-83
2023/06/02 13:13:58;;;;;;;;;;;;;;;;;;5092573;28;19928;-83
2023/06/02 13:16:25;;;;;;;;;;;29.10;48.10;;;;;;5109858;28;19924;-84
2023/06/02 13:18:50;;;;;;;;;;;29.10;48.50;;;;;;5108426;28;20034;-85
2023/06/02 13:21:17;;;;;;;;;;;29.00;48.70;;;;;;5092551;28;20018;-85
2023/06/02 13:23:50;;;;;;;;;;;28.70;47.80;;;;;;5105501;28;20369;-87
2023/06/02 13:26:15;;;;;;;;;;;28.40;48.70;;;;;;5110257;28;20352;-86
2023/06/02 13:28:41;;;;;;;;;;;29.10;48.60;;;;;;5092320;28;19942;-86
2023/06/02 13:31:07;;;;;;;;;;;;;;;;;;5090434;28;19928;-88
2023/06/02 13:33:34;;;;;;;;;;;;;;;;;;5109129;28;19923;-91
2023/06/02 13:36:00;;;;;;;;;;;;;;;;;;5109456;28;20026;-89
2023/06/02 13:38:26;;;;;;;;;;;;;;;;;;5093274;28;19926;-87
2023/06/02 13:40:52;;;;;;;;;;;;;;;;;;5093678;28;19919;-90
2023/06/02 13:43:18;;;;;;;;;;;;;;;;;;5109664;28;19927;-90
2023/06/02 13:45:44;;;;;;;;;;;;;;;;;;5090498;28;19924;-90
2023/06/02 13:48:10;;;;;;;;;;;;;;;;;;5093818;28;19919;-82
2023/06/02 13:50:36;;;;;;;;;;;30.60;44.70;;;;;;5094816;28;19926;-83
2023/06/02 13:53:02;;;;;;;;;;;32.40;46.60;;;;;;5112244;27;19966;-83
2023/06/02 13:55:29;;;;;;;;;;;;;;;;;;5093094;28;20293;-82
2023/06/02 13:57:55;;;;;;;;;;;;;;;;;;5097464;28;19930;-88
2023/06/02 14:00:21;;;;;;;;;;;;;;;;;;5109112;27;20281;-86
2023/06/02 14:02:47;;;;;;;;;;;;;;;;;;5090886;28;19923;-88
2023/06/02 14:05:13;;;;;;;;;;;33.10;41.80;;;;;;5131874;27;19928;-89
2023/06/02 14:07:38;;;;;;;;;;;32.60;43.30;;;;;;5095124;28;19923;-89
2023/06/02 14:10:04;;;;;;;;;;;31.20;44.20;;;;;;5097107;28;19931;-88
2023/06/02 14:12:30;;;;;;;;;;;;;;;;;;5092358;28;20039;-89
2023/06/02 14:14:56;;;;;;;;;;;30.30;44.40;;;;;;5091197;28;20377;-89
2023/06/02 14:17:22;;;;;;;;;;;30.10;46.00;;;;;;5107658;27;19927;-88
2023/06/02 14:19:47;;;;;;;;;;;30.30;47.50;;;;;;5103670;28;19920;-88
2023/06/02 14:22:13;;;;;;;;;;;30.50;47.00;;;;;;5126738;27;19939;-89
2023/06/02 14:24:38;;;;;;;;;;;30.50;44.90;;;;;;5104337;28;19966;-88
2023/06/02 14:27:05;;;;;;;;;;;;;;;;;;5095735;28;20284;-88
2023/06/02 14:29:30;;;;;;;;;;;30.30;44.60;;;;;;5111770;28;19984;-88
2023/06/02 14:31:56;;;;;;;;;;;30.30;45.90;;;;;;5112336;28;19924;-88
2023/06/02 14:34:22;;;;;;;;;;;;;;;;;;5109610;28;19923;-88
2023/06/02 14:36:48;;;;;;;;;;;;;;;;;;5103457;28;19920;-88
2023/06/02 14:39:13;;;;;;;;;;;31.20;39.60;;;;;;5093685;28;20373;-87
2023/06/02 14:41:39;;;;;;;;;;;30.60;41.20;;;;;;5094944;28;19972;-88
2023/06/02 14:44:04;;;;;;;;;;;29.70;42.40;;;;;;5098298;28;20300;-89
2023/06/02 14:46:30;;;;;;;;;;;28.90;43.30;;;;;;5095588;28;19924;-89
2023/06/02 14:48:55;;;;;;;;;;;27.90;44.30;;;;;;5092955;28;19920;-84
2023/06/02 14:51:21;;;;;;;;;;;28.60;46.80;;;;;;5111400;28;19930;-84
2023/06/02 14:53:46;;;;;;;;;;;29.90;45.90;;;;;;5105384;28;19924;-85
2023/06/02 14:56:12;;;;;;;;;;;;;;;;;;5110668;28;19930;-88
2023/06/02 14:58:38;;;;;;;;;;;;;;;;;;5111083;28;19924;-93
2023/06/02 15:01:04;;;;;;;;;;;;;;;;;;5100556;28;20296;-93
2023/06/02 15:03:30;;;;;;;;;;;33.90;42.40;;;;;;5105840;28;20365;-92
2023/06/02 15:05:56;;;;;;;;;;;33.70;42.80;;;;;;5125034;27;19924;-93
2023/06/02 15:08:21;;;;;;;;;;;;;;;;;;5088918;28;19924;-88
2023/06/02 15:10:47;;;;;;;;;;;33.00;39.00;;;;;;5102702;28;19920;-86
2023/06/02 15:13:13;;;;;;;;;;;31.00;39.70;;;;;;5111675;28;19927;-81
2023/06/02 15:15:38;;;;;;;;;;;30.70;41.60;;;;;;5108807;28;20405;-82
2023/06/02 15:18:04;;;;;;;;;;;29.80;42.70;;;;;;5109802;28;19927;-80
2023/06/02 15:20:30;;;;;;;;;;;29.00;43.40;;;;;;5097034;28;20392;-79
2023/06/02 15:22:55;;;;;;;;;;;28.30;44.90;;;;;;5109092;27;19924;-85
2023/06/02 15:25:21;;;;;;;;;;;27.70;45.50;;;;;;5125961;27;19924;-84
2023/06/02 15:27:46;;;;;;;;;;;27.20;46.90;;;;;;5072997;28;20283;-82
2023/06/02 15:30:12;;;;;;;;;;;26.70;47.50;;;;;;5090066;28;19973;-79
2023/06/02 15:32:38;;;;;;;;;;;26.30;48.30;;;;;;5089704;28;20349;-80
2023/06/02 15:35:04;;;;;;;;;;;26.00;49.10;;;;;;5106071;28;19928;-82
2023/06/02 15:37:29;;;;;;;;;;;25.80;50.00;;;;;;5124863;27;19936;-81
2023/06/02 15:39:55;;;;;;;;;;;25.60;50.10;;;;;;5110048;28;20006;-79
2023/06/02 15:42:21;;;;;;;;;;;25.30;50.50;;;;;;5080435;28;19969;-78
2023/06/02 15:44:46;;;;;;;;;;;25.20;50.80;;;;;;5108220;28;20120;-79
2023/06/02 15:47:12;;;;;;;;;;;25.40;50.80;;;;;;5093969;28;19924;-80
2023/06/02 15:49:37;;;;;;;;;;;26.20;51.00;;;;;;5102308;27;19939;-90
2023/06/02 15:52:03;;;;;;;;;;;26.20;50.70;;;;;;5119482;27;20010;-88
2023/06/02 15:54:29;;;;;;;;;;;26.10;50.80;;;;;;5097678;28;19919;-89
2023/06/02 15:56:55;;;;;;;;;;;25.90;50.70;;;;;;5127505;27;19998;-89
2023/06/02 15:59:21;;;;;;;;;;;25.60;49.20;;;;;;5115402;27;19990;-88
2023/06/02 16:03:53;;;;;;;7.00;2.35;;;;;;;;;;5077242;27;20448;-87
2023/06/02 16:06:19;;;;;;;6.38;2.08;;;;;;;;;;5066334;28;20057;-91
2023/06/02 16:08:45;;;;;;;6.93;2.10;;;;;;;;;;5057182;28;20114;-88
2023/06/02 16:11:11;;;;;;;6.43;2.25;;;;;;;;;;5045488;28;20056;-88